Worland, WY

3:24 PM MST on February 05, 2016 (GMT -0700)
Worland Municipal | | Change Station
CLOSE
Current Station
Airport
Location: Worland,
Elevation: 4226 ft
Nearby Weather Stations

Elev 4226 ft 43.97 °N, 107.95 °W | Updated 31 minutes ago

Clear
Clear
37 °F
Feels Like 32 °F
N
6
Wind Variable Wind from SSE

Today
High -- | Low -- °F
--% Chance of Precip.
Yesterday
High -- | Low -- °F
Precip. -- in
Pressure 30.38 in
Visibility 10.0 miles
Clouds Clear
Windchill 32 °F
Dew Point 12 °F
Humidity 36%
Rainfall 0.00 in
Snow Depth Not available.
7:24 AM 5:27 PM
Waning Crescent, 9% visible
METAR KWRL 052153Z AUTO 15005KT 10SM CLR 03/M11 A3024 RMK AO2 SLP285 T00281111
Pressure 30.38 in
Visibility 10.0 miles
Clouds Clear
Windchill 32 °F
Dew Point 12 °F
Humidity 36%
Rainfall 0.00 in
Snow Depth Not available.
7:24 AM 5:27 PM
Waning Crescent, 9% visible
METAR KWRL 052153Z AUTO 15005KT 10SM CLR 03/M11 A3024 RMK AO2 SLP285 T00281111

10-Day Weather Forecast

Almanac

Astronomy

Feb. 05, 2016 Rise Set
Actual Time
Civil Twilight
Nautical Twilight
Astronomical Twilight
Moon
Length of Visible Light
Length of Day
Tomorrow will be .
, % of the Moon is Illuminated

Today's Extremes

State Highs State Lows

Community

WunderPhotos

Upload Photos

1,890,878 photos uploaded!

WunderBlog® & News

Nearby

Air Quality

  Air Quality AQ Index Pollutant
Not available.

Snow Depth

Station Depth Elevation

Earthquake Activity

City Distance Mag. Time & Date
Minimum magnitude displayed is 2.5.

Coastal Water Temperatures

Place Temperature

Stations

Nearby Weather Stations

Station Location Temp. Windchill Dew Point Humidity Wind Precip. Elev Updated Type
                   

Watches & Warnings

There are currently no watches in effect.